MSC Vanessa — HOWD — position and weather

sailwx.info

Track history (hours):
 
Tides and Currents Weather Stations Pressure Air Temp Water Temp Dewpoint Dewpoint Depression Visibility Wind Speed Wind Dir Waves Ship Positions

MSC Vanessa

Last reported at 2018-Apr-12 21:15 UTC. Time now 2018-Apr-25 00:56 UTC.
Position N 19°17' E 058°26'.
Warning: this ship's position is 12 days out of date.

Length 300 m; draft 13.1 m.

Type: Ship (hazmat cat A). MMSI: 356946000.

Date/timePositionNaut miles runAvg speedWind from/ knotsBaromVisibWave heightAir tempDewpointWater temp
2018-Apr-12 21:15N 19°17' E 058°26'620.7
2018-Apr-12 20:59N 19°12' E 058°23'1420.7
2018-Apr-12 20:18N 18°60' E 058°15'721.9
2018-Apr-12 19:59N 18°54' E 058°11'  
2018-Apr-06 06:42N 30°46' E 032°19'3 8.8
2018-Apr-06 06:18N 30°49' E 032°19'3 8.9
2018-Apr-06 06:00N 30°52' E 032°19'4 8.6
2018-Apr-06 05:30N 30°56' E 032°19'4 8.8
2018-Apr-06 05:00N 31°00' E 032°19'4 8.7
2018-Apr-06 04:30N 31°05' E 032°19'4 8.6
2018-Apr-06 04:00N 31°09' E 032°19'4 8.7
2018-Apr-06 03:30N 31°13' E 032°21'4 8.2
2018-Apr-06 03:00N 31°17' E 032°22'4 8.8
2018-Apr-06 02:30N 31°21' E 032°23'5 9.8
2018-Apr-06 02:00N 31°26' E 032°24'3 6.3
2018-Apr-06 01:30N 31°28' E 032°22'3 2.5
2018-Apr-06 00:15N 31°28' E 032°18'0 0.0
2018-Apr-05 23:03N 31°28' E 032°18'0 0.1
2018-Apr-05 23:01N 31°28' E 032°18'0 0.0
2018-Apr-05 22:29N 31°28' E 032°18'1 1.1
2018-Apr-05 22:00N 31°28' E 032°18'1 1.0
2018-Apr-05 21:28N 31°28' E 032°18'0 0.0
2018-Apr-05 20:58N 31°28' E 032°18'0 0.0
2018-Apr-05 20:25N 31°28' E 032°18'0 0.0
2018-Apr-05 20:00N 31°28' E 032°18'0 0.0
2018-Apr-05 19:30N 31°28' E 032°18'0 0.0
2018-Apr-05 19:00N 31°28' E 032°18'0 0.0
2018-Apr-05 18:27N 31°28' E 032°18'0 0.7
2018-Apr-05 17:49N 31°28' E 032°18'2 5.8
2018-Apr-05 17:30N 31°30' E 032°19'4 8.7
2018-Apr-05 17:00N 31°34' E 032°20'5 8.6
2018-Apr-05 16:25N 31°37' E 032°25'4 8.9
2018-Apr-05 16:00N 31°39' E 032°29'5 9.0
2018-Apr-05 15:30N 31°41' E 032°33'4 7.9
2018-Apr-05 15:00N 31°45' E 032°36'3 6.5
2018-Apr-05 14:30N 31°48' E 032°36'4 7.5
2018-Apr-05 14:00N 31°52' E 032°37'612.4
2018-Apr-05 13:30N 31°57' E 032°40'612.8
2018-Apr-05 13:00N 32°03' E 032°44'612.5
2018-Apr-05 12:30N 32°09' E 032°47'1312.3
2018-Apr-05 11:24N 32°21' E 032°54'512.5
2018-Apr-05 11:00N 32°25' E 032°56'712.6
2018-Apr-05 10:29N 32°31' E 033°00'612.8
2018-Apr-05 10:01N 32°36' E 033°03'612.8
2018-Apr-05 09:30N 32°42' E 033°07'612.7
2018-Apr-05 09:01N 32°48' E 033°10'612.7
2018-Apr-05 08:30N 32°53' E 033°14'815.4
2018-Apr-05 07:58N 33°01' E 033°18'920.0
2018-Apr-05 07:30N 33°09' E 033°23'1121.3
2018-Apr-05 07:00N 33°18' E 033°29'1421.6
2018-Apr-05 06:21N 33°31' E 033°37'720.7
2018-Apr-05 06:00N 33°37' E 033°41'918.6
2018-Apr-05 05:30N 33°46' E 033°45'714.4
2018-Apr-05 05:00N 33°52' E 033°49'612.9
2018-Apr-05 04:30N 33°58' E 033°52'612.7
2018-Apr-05 04:00N 34°04' E 033°56'5612.7
2018-Apr-04 23:38N 34°53' E 034°27'112.0
2018-Apr-04 23:30N 34°55' E 034°27'3038.1
2018-Apr-04 22:44N 35°14' E 034°55'1982.8
2018-Apr-04 22:30N 35°06' E 034°34'3012.4
2018-Apr-04 20:04N 35°32' E 034°53'111.8
2018-Apr-04 20:00N 35°33' E 034°53'1812.1
2018-Apr-04 18:33N 35°49' E 035°03'112.3
2018-Apr-04 18:30N 35°49' E 035°03'612.6
2018-Apr-04 18:00N 35°55' E 035°06'912.8
2018-Apr-04 17:18N 36°03' E 035°11'612.5
2018-Apr-04 16:49N 36°08' E 035°15'412.4
2018-Apr-04 16:30N 36°11' E 035°19'1112.3
2018-Apr-04 15:39N 36°18' E 035°28'212.4
2018-Apr-04 15:30N 36°19' E 035°30'  
Track history (hours):
 
Tides and Currents Weather Stations Pressure Air Temp Water Temp Dewpoint Dewpoint Depression Visibility Wind Speed Wind Dir Waves Ship Positions

MSC Vanessa

Last reported at 2018-Apr-12 21:15 UTC. Time now 2018-Apr-25 00:56 UTC.
Position N 19°17' E 058°26'.
Warning: this ship's position is 12 days out of date.

Length 300 m; draft 13.1 m.

Type: Ship (hazmat cat A). MMSI: 356946000.

Date/timePositionNaut miles runAvg speedWind from/ knotsBaromVisibWave heightAir tempDewpointWater temp
2018-Apr-12 21:15N 19°17' E 058°26'620.7
2018-Apr-12 20:59N 19°12' E 058°23'1420.7
2018-Apr-12 20:18N 18°60' E 058°15'721.9
2018-Apr-12 19:59N 18°54' E 058°11'  
2018-Apr-06 06:42N 30°46' E 032°19'3 8.8
2018-Apr-06 06:18N 30°49' E 032°19'3 8.9
2018-Apr-06 06:00N 30°52' E 032°19'4 8.6
2018-Apr-06 05:30N 30°56' E 032°19'4 8.8
2018-Apr-06 05:00N 31°00' E 032°19'4 8.7
2018-Apr-06 04:30N 31°05' E 032°19'4 8.6
2018-Apr-06 04:00N 31°09' E 032°19'4 8.7
2018-Apr-06 03:30N 31°13' E 032°21'4 8.2
2018-Apr-06 03:00N 31°17' E 032°22'4 8.8
2018-Apr-06 02:30N 31°21' E 032°23'5 9.8
2018-Apr-06 02:00N 31°26' E 032°24'3 6.3
2018-Apr-06 01:30N 31°28' E 032°22'3 2.5
2018-Apr-06 00:15N 31°28' E 032°18'0 0.0
2018-Apr-05 23:03N 31°28' E 032°18'0 0.1
2018-Apr-05 23:01N 31°28' E 032°18'0 0.0
2018-Apr-05 22:29N 31°28' E 032°18'1 1.1
2018-Apr-05 22:00N 31°28' E 032°18'1 1.0
2018-Apr-05 21:28N 31°28' E 032°18'0 0.0
2018-Apr-05 20:58N 31°28' E 032°18'0 0.0
2018-Apr-05 20:25N 31°28' E 032°18'0 0.0
2018-Apr-05 20:00N 31°28' E 032°18'0 0.0
2018-Apr-05 19:30N 31°28' E 032°18'0 0.0
2018-Apr-05 19:00N 31°28' E 032°18'0 0.0
2018-Apr-05 18:27N 31°28' E 032°18'0 0.7
2018-Apr-05 17:49N 31°28' E 032°18'2 5.8
2018-Apr-05 17:30N 31°30' E 032°19'4 8.7
2018-Apr-05 17:00N 31°34' E 032°20'5 8.6
2018-Apr-05 16:25N 31°37' E 032°25'4 8.9
2018-Apr-05 16:00N 31°39' E 032°29'5 9.0
2018-Apr-05 15:30N 31°41' E 032°33'4 7.9
2018-Apr-05 15:00N 31°45' E 032°36'3 6.5
2018-Apr-05 14:30N 31°48' E 032°36'4 7.5
2018-Apr-05 14:00N 31°52' E 032°37'612.4
2018-Apr-05 13:30N 31°57' E 032°40'612.8
2018-Apr-05 13:00N 32°03' E 032°44'612.5
2018-Apr-05 12:30N 32°09' E 032°47'1312.3
2018-Apr-05 11:24N 32°21' E 032°54'512.5
2018-Apr-05 11:00N 32°25' E 032°56'712.6
2018-Apr-05 10:29N 32°31' E 033°00'612.8
2018-Apr-05 10:01N 32°36' E 033°03'612.8
2018-Apr-05 09:30N 32°42' E 033°07'612.7
2018-Apr-05 09:01N 32°48' E 033°10'612.7
2018-Apr-05 08:30N 32°53' E 033°14'815.4
2018-Apr-05 07:58N 33°01' E 033°18'920.0
2018-Apr-05 07:30N 33°09' E 033°23'1121.3
2018-Apr-05 07:00N 33°18' E 033°29'1421.6
2018-Apr-05 06:21N 33°31' E 033°37'720.7
2018-Apr-05 06:00N 33°37' E 033°41'918.6
2018-Apr-05 05:30N 33°46' E 033°45'714.4
2018-Apr-05 05:00N 33°52' E 033°49'612.9
2018-Apr-05 04:30N 33°58' E 033°52'612.7
2018-Apr-05 04:00N 34°04' E 033°56'5612.7
2018-Apr-04 23:38N 34°53' E 034°27'112.0
2018-Apr-04 23:30N 34°55' E 034°27'3038.1
2018-Apr-04 22:44N 35°14' E 034°55'1982.8
2018-Apr-04 22:30N 35°06' E 034°34'3012.4
2018-Apr-04 20:04N 35°32' E 034°53'111.8
2018-Apr-04 20:00N 35°33' E 034°53'1812.1
2018-Apr-04 18:33N 35°49' E 035°03'112.3
2018-Apr-04 18:30N 35°49' E 035°03'612.6
2018-Apr-04 18:00N 35°55' E 035°06'912.8
2018-Apr-04 17:18N 36°03' E 035°11'612.5
2018-Apr-04 16:49N 36°08' E 035°15'412.4
2018-Apr-04 16:30N 36°11' E 035°19'1112.3
2018-Apr-04 15:39N 36°18' E 035°28'212.4
2018-Apr-04 15:30N 36°19' E 035°30'  

Dump ship's entire track history